createdAt,value
2018-01-24T00:00:44.225Z,69.60
2018-01-24T00:03:12.449Z,69.90
2018-01-24T00:05:40.758Z,70.60
2018-01-24T00:08:08.985Z,70.30
2018-01-24T00:10:37.235Z,70.00
2018-01-24T00:13:06.232Z,70.00
2018-01-24T00:15:35.260Z,70.00
2018-01-24T00:18:03.571Z,69.90
2018-01-24T00:20:31.870Z,69.60
2018-01-24T00:23:00.146Z,70.10
2018-01-24T00:25:28.428Z,70.10
2018-01-24T00:27:56.711Z,70.20
2018-01-24T00:30:24.951Z,69.80
2018-01-24T00:32:53.247Z,70.10
2018-01-24T00:35:21.476Z,70.30
2018-01-24T00:37:49.746Z,69.90
2018-01-24T00:40:18.075Z,70.00
2018-01-24T00:42:46.300Z,70.00
2018-01-24T00:45:14.555Z,70.00
2018-01-24T00:47:43.580Z,70.20
2018-01-24T00:50:11.821Z,70.20
2018-01-24T00:52:40.837Z,70.00
2018-01-24T00:55:09.901Z,69.80
2018-01-24T00:57:38.189Z,69.80
2018-01-24T01:00:06.456Z,69.80
2018-01-24T01:02:34.721Z,70.20
2018-01-24T01:05:02.956Z,70.10
2018-01-24T01:07:31.195Z,69.90
2018-01-24T01:09:59.437Z,69.80
2018-01-24T01:12:27.679Z,69.90
2018-01-24T01:14:55.980Z,70.10
2018-01-24T01:17:24.220Z,70.10
2018-01-24T01:19:53.223Z,70.40
2018-01-24T01:22:21.482Z,70.30
2018-01-24T01:24:50.497Z,70.30
2018-01-24T01:27:18.740Z,70.30
2018-01-24T01:29:47.781Z,70.10
2018-01-24T01:32:16.072Z,70.20
2018-01-24T01:34:45.081Z,70.30
2018-01-24T01:37:13.389Z,70.30
2018-01-24T01:39:41.703Z,70.30
2018-01-24T01:42:09.937Z,70.40
2018-01-24T01:44:38.188Z,70.50
2018-01-24T01:47:06.510Z,70.70
2018-01-24T01:49:35.539Z,70.90
2018-01-24T01:52:03.784Z,70.90
2018-01-24T01:54:32.404Z,70.80
2018-01-24T01:57:00.698Z,70.90
2018-01-24T01:59:28.943Z,71.00
2018-01-24T02:01:57.242Z,71.30
2018-01-24T02:04:25.532Z,71.10
2018-01-24T02:06:53.810Z,71.10
2018-01-24T02:09:22.104Z,71.10
2018-01-24T02:11:50.376Z,71.10
2018-01-24T02:14:18.938Z,71.00
2018-01-24T02:16:47.161Z,71.00
2018-01-24T02:19:16.212Z,70.80
2018-01-24T02:21:44.464Z,70.80
2018-01-24T02:24:12.730Z,70.80
2018-01-24T02:26:41.023Z,71.10
2018-01-24T02:29:09.298Z,71.10
2018-01-24T02:31:37.560Z,71.20
2018-01-24T02:34:05.805Z,71.20
2018-01-24T02:36:34.848Z,71.10
2018-01-24T02:39:12.937Z,71.00
2018-01-24T02:41:41.252Z,71.00
2018-01-24T02:44:09.523Z,71.10
2018-01-24T02:46:37.788Z,70.80
2018-01-24T02:49:06.080Z,70.90
2018-01-24T02:51:34.366Z,71.00
2018-01-24T02:54:02.656Z,71.00
2018-01-24T02:56:30.903Z,71.10
2018-01-24T02:58:59.148Z,70.90
2018-01-24T03:01:27.430Z,71.00
2018-01-24T03:03:56.415Z,71.00
2018-01-24T03:06:24.710Z,70.90
2018-01-24T03:08:52.941Z,70.80
2018-01-24T03:11:21.226Z,70.80
2018-01-24T03:13:49.458Z,71.60
2018-01-24T03:16:17.765Z,71.10
2018-01-24T03:18:46.043Z,71.20
2018-01-24T03:21:14.305Z,71.60
2018-01-24T03:23:42.556Z,71.50
2018-01-24T03:26:10.798Z,71.90
2018-01-24T03:28:39.871Z,72.00
2018-01-24T03:31:08.393Z,72.00
2018-01-24T03:33:37.407Z,72.10
2018-01-24T03:36:05.692Z,72.30
2018-01-24T03:38:33.911Z,72.20
2018-01-24T03:41:02.980Z,72.50
2018-01-24T03:43:31.226Z,72.40
2018-01-24T03:45:59.487Z,72.50
2018-01-24T03:48:27.729Z,72.50
2018-01-24T03:50:56.099Z,72.60
2018-01-24T03:53:24.290Z,72.60
2018-01-24T03:55:52.537Z,72.50
2018-01-24T03:58:20.790Z,73.20
2018-01-24T04:00:49.077Z,72.70
2018-01-24T04:03:17.354Z,72.90
2018-01-24T04:05:45.593Z,72.80
2018-01-24T04:08:14.620Z,73.10
2018-01-24T04:10:42.887Z,73.10
2018-01-24T04:13:11.113Z,72.90
2018-01-24T04:15:39.360Z,73.20
2018-01-24T04:18:07.595Z,72.90
2018-01-24T04:20:35.860Z,73.30
2018-01-24T04:23:04.127Z,73.10
2018-01-24T04:25:32.375Z,73.40
2018-01-24T04:28:00.885Z,74.20
2018-01-24T04:30:29.120Z,73.40
2018-01-24T04:32:57.408Z,73.30
2018-01-24T04:35:25.685Z,73.50
2018-01-24T04:37:54.000Z,73.30
2018-01-24T04:40:22.334Z,73.40
2018-01-24T04:42:50.588Z,73.40
2018-01-24T04:45:18.877Z,73.40
2018-01-24T04:47:47.160Z,73.40
2018-01-24T04:50:15.461Z,73.50
2018-01-24T04:52:43.697Z,73.30
2018-01-24T04:55:11.967Z,73.60
2018-01-24T04:57:40.260Z,73.60
2018-01-24T05:00:08.502Z,73.20
2018-01-24T05:02:37.521Z,73.50
2018-01-24T05:05:06.131Z,73.40
2018-01-24T05:07:34.421Z,73.60
2018-01-24T05:10:02.658Z,73.30
2018-01-24T05:12:30.930Z,73.40
2018-01-24T05:14:59.176Z,73.20
2018-01-24T05:17:28.192Z,73.70
2018-01-24T05:19:57.251Z,73.10
2018-01-24T05:22:25.503Z,73.10
2018-01-24T05:24:53.805Z,73.00
2018-01-24T05:27:22.082Z,73.60
2018-01-24T05:29:50.428Z,73.20
2018-01-24T05:32:18.705Z,73.20
2018-01-24T05:34:46.970Z,73.80
2018-01-24T05:37:15.537Z,73.20
2018-01-24T05:39:44.572Z,73.20
2018-01-24T05:42:12.801Z,73.20
2018-01-24T05:44:41.827Z,73.10
2018-01-24T05:47:10.062Z,73.00
2018-01-24T05:49:39.105Z,72.90
2018-01-24T05:52:07.348Z,72.90
2018-01-24T05:54:35.625Z,73.10
2018-01-24T05:57:04.632Z,73.00
2018-01-24T05:59:32.940Z,73.00
2018-01-24T06:02:01.214Z,73.10
2018-01-24T06:04:30.213Z,73.00
2018-01-24T06:06:58.470Z,73.00
2018-01-24T06:09:26.696Z,73.00
2018-01-24T06:11:54.983Z,73.30
2018-01-24T06:14:23.228Z,73.70
2018-01-24T06:16:51.504Z,73.50
2018-01-24T06:19:19.812Z,73.30
2018-01-24T06:21:48.813Z,73.20
2018-01-24T06:24:17.858Z,73.20
2018-01-24T06:26:46.182Z,73.20
2018-01-24T06:29:14.420Z,73.40
2018-01-24T06:31:42.704Z,73.20
2018-01-24T06:34:11.023Z,73.10
2018-01-24T06:36:40.069Z,73.30
2018-01-24T06:39:08.362Z,73.30
2018-01-24T06:41:36.664Z,73.10
2018-01-24T06:44:05.741Z,73.10
2018-01-24T06:46:34.096Z,74.10
2018-01-24T06:49:02.330Z,73.40
2018-01-24T06:51:31.382Z,73.40
2018-01-24T06:53:59.630Z,73.40
2018-01-24T06:56:27.880Z,73.40
2018-01-24T06:58:56.441Z,73.40
2018-01-24T07:01:25.486Z,73.70
2018-01-24T07:03:53.762Z,73.50
2018-01-24T07:06:22.022Z,73.30
2018-01-24T07:08:50.260Z,73.40
2018-01-24T07:11:18.519Z,73.30
2018-01-24T07:13:58.631Z,73.50
2018-01-24T07:16:26.970Z,73.40
2018-01-24T07:18:55.194Z,73.40
2018-01-24T07:21:23.475Z,73.40
2018-01-24T07:23:51.733Z,73.30
2018-01-24T07:26:19.960Z,73.30
2018-01-24T07:28:48.229Z,73.60
2018-01-24T07:31:16.516Z,73.40
2018-01-24T07:33:44.811Z,73.70
2018-01-24T07:36:13.082Z,73.90
2018-01-24T07:38:41.325Z,73.70
2018-01-24T07:41:09.567Z,73.80
2018-01-24T07:43:37.856Z,73.70
2018-01-24T07:46:06.151Z,73.40
2018-01-24T07:48:34.388Z,73.50
2018-01-24T07:51:03.430Z,73.40
2018-01-24T07:53:31.679Z,73.40
2018-01-24T07:55:59.958Z,73.50
2018-01-24T07:58:28.255Z,73.70
2018-01-24T08:00:56.544Z,73.40
2018-01-24T08:03:25.531Z,72.90
2018-01-24T08:05:53.811Z,73.00
2018-01-24T08:08:22.112Z,73.00
2018-01-24T08:10:50.353Z,72.90
2018-01-24T08:13:18.588Z,72.80
2018-01-24T08:15:47.632Z,72.80
2018-01-24T08:18:15.859Z,72.80
2018-01-24T08:20:44.928Z,72.90
2018-01-24T08:23:13.163Z,72.90
2018-01-24T08:25:41.471Z,73.00
2018-01-24T08:28:09.755Z,73.20
2018-01-24T08:30:38.057Z,73.20
2018-01-24T08:33:07.112Z,73.20
2018-01-24T08:35:35.386Z,73.20
2018-01-24T08:38:03.677Z,73.00
2018-01-24T08:40:32.830Z,73.10
2018-01-24T08:43:01.119Z,73.20
2018-01-24T08:45:29.419Z,73.40
2018-01-24T08:47:57.724Z,73.50
2018-01-24T08:50:25.952Z,73.30
2018-01-24T08:52:54.823Z,73.20
2018-01-24T08:55:23.118Z,73.10
2018-01-24T08:57:51.352Z,73.20
2018-01-24T09:00:20.431Z,73.20
2018-01-24T09:02:48.660Z,72.90
2018-01-24T09:05:16.888Z,72.90
2018-01-24T09:07:45.205Z,73.10
2018-01-24T09:10:14.196Z,73.50
2018-01-24T09:12:42.465Z,73.40
2018-01-24T09:15:11.507Z,73.30
2018-01-24T09:17:39.777Z,73.30
2018-01-24T09:20:08.026Z,72.90
2018-01-24T09:22:36.251Z,73.10
2018-01-24T09:25:04.684Z,73.00
2018-01-24T09:27:32.958Z,73.30
2018-01-24T09:30:01.947Z,72.90
2018-01-24T09:32:30.251Z,72.90
2018-01-24T09:34:58.520Z,72.80
2018-01-24T09:37:26.826Z,72.70
2018-01-24T09:39:55.081Z,72.50
2018-01-24T09:42:23.360Z,73.00
2018-01-24T09:44:51.619Z,73.10
2018-01-24T09:47:19.876Z,73.00
2018-01-24T09:49:48.924Z,72.70
2018-01-24T09:52:17.196Z,72.70
2018-01-24T09:54:45.474Z,73.20
2018-01-24T09:57:13.726Z,73.20
2018-01-24T09:59:42.006Z,72.00
2018-01-24T10:02:10.290Z,72.80
2018-01-24T10:04:38.574Z,72.20
2018-01-24T10:07:06.853Z,72.90
2018-01-24T10:09:35.116Z,71.80
2018-01-24T10:12:03.417Z,71.30
2018-01-24T10:14:31.721Z,71.70
2018-01-24T10:17:00.000Z,71.80
2018-01-24T10:19:28.275Z,71.60
2018-01-24T10:21:56.581Z,70.70
2018-01-24T10:24:25.635Z,72.80
2018-01-24T10:26:54.812Z,72.70
2018-01-24T10:29:23.061Z,71.10
2018-01-24T10:31:51.331Z,71.60
2018-01-24T10:34:19.639Z,69.30
2018-01-24T10:36:47.928Z,69.50
2018-01-24T10:39:16.229Z,69.00
2018-01-24T10:41:44.475Z,70.40
2018-01-24T10:44:13.549Z,69.40
2018-01-24T10:46:41.855Z,69.40
2018-01-24T10:49:10.163Z,69.40
2018-01-24T10:51:39.226Z,70.20
2018-01-24T10:54:07.518Z,70.10
2018-01-24T10:56:35.827Z,67.80
2018-01-24T10:59:04.089Z,67.40
2018-01-24T11:01:32.386Z,68.30
2018-01-24T11:04:01.420Z,67.90
2018-01-24T11:06:29.696Z,68.00
2018-01-24T11:08:58.006Z,68.60
2018-01-24T11:11:26.295Z,69.00
2018-01-24T11:13:54.560Z,65.90
2018-01-24T11:16:22.859Z,66.40
2018-01-24T11:18:51.107Z,67.20
2018-01-24T11:21:20.172Z,68.00
2018-01-24T11:23:48.410Z,68.10
2018-01-24T11:26:17.465Z,66.50
2018-01-24T11:28:45.713Z,66.30
2018-01-24T11:31:13.999Z,67.00
2018-01-24T11:33:42.260Z,66.70
2018-01-24T11:36:10.552Z,65.30
2018-01-24T11:38:38.831Z,69.80
2018-01-24T11:41:07.081Z,64.90
2018-01-24T11:43:35.324Z,65.30
2018-01-24T11:46:03.645Z,68.10
2018-01-24T11:48:31.931Z,67.10
2018-01-24T11:51:00.188Z,65.80
2018-01-24T11:53:28.483Z,66.00
2018-01-24T11:55:56.733Z,65.00
2018-01-24T11:58:26.071Z,63.50
2018-01-24T12:00:54.362Z,63.50
2018-01-24T12:03:22.645Z,62.10
2018-01-24T12:05:51.673Z,64.30
2018-01-24T12:08:19.927Z,63.60
2018-01-24T12:10:48.187Z,65.40
2018-01-24T12:13:16.552Z,63.10
2018-01-24T12:15:45.653Z,67.80
2018-01-24T12:18:13.895Z,66.90
2018-01-24T12:20:42.169Z,63.60
2018-01-24T12:23:11.185Z,67.70
2018-01-24T12:25:39.497Z,67.80
2018-01-24T12:28:07.735Z,65.80
2018-01-24T12:30:35.988Z,70.40
2018-01-24T12:33:05.025Z,68.60
2018-01-24T12:35:33.310Z,68.50
2018-01-24T12:38:01.564Z,61.40
2018-01-24T12:40:29.874Z,65.90
2018-01-24T12:42:58.145Z,64.90
2018-01-24T12:45:26.462Z,61.90
2018-01-24T12:47:54.717Z,61.20
2018-01-24T12:50:22.996Z,60.90
2018-01-24T12:52:51.254Z,62.60
2018-01-24T12:55:19.542Z,60.20
2018-01-24T12:57:48.154Z,65.90
2018-01-24T13:00:16.453Z,67.10
2018-01-24T13:02:45.507Z,66.10
2018-01-24T13:05:13.768Z,66.40
2018-01-24T13:07:42.029Z,58.20
2018-01-24T13:10:10.269Z,58.80
2018-01-24T13:12:39.299Z,59.60
2018-01-24T13:15:07.561Z,59.20
2018-01-24T13:17:35.851Z,60.70
2018-01-24T13:20:04.152Z,63.20
2018-01-24T13:22:32.389Z,60.30
2018-01-24T13:25:00.717Z,58.70
2018-01-24T13:27:28.964Z,60.30
2018-01-24T13:29:57.234Z,60.30
2018-01-24T13:32:25.551Z,58.30
2018-01-24T13:34:53.834Z,61.40
2018-01-24T13:37:22.128Z,58.80
2018-01-24T13:39:50.381Z,59.60
2018-01-24T13:42:18.665Z,57.30
2018-01-24T13:44:46.968Z,58.90
2018-01-24T13:47:16.028Z,58.10
2018-01-24T13:49:44.352Z,58.10
2018-01-24T13:52:13.420Z,57.00
2018-01-24T13:54:41.721Z,57.10
2018-01-24T13:57:10.790Z,59.00
2018-01-24T13:59:39.069Z,58.90
2018-01-24T14:02:08.244Z,56.80
2018-01-24T14:04:36.553Z,57.80
2018-01-24T14:07:04.790Z,58.40
2018-01-24T14:09:33.070Z,57.00
2018-01-24T14:12:01.333Z,57.00
2018-01-24T14:14:29.597Z,57.80
2018-01-24T14:16:57.895Z,58.10
2018-01-24T14:19:26.152Z,58.40
2018-01-24T14:21:54.401Z,59.50
2018-01-24T14:24:23.429Z,60.20
2018-01-24T14:26:51.686Z,60.30
2018-01-24T14:29:19.963Z,60.80
2018-01-24T14:31:48.330Z,59.50
2018-01-24T14:34:17.376Z,60.40
2018-01-24T14:36:45.651Z,60.40
2018-01-24T14:39:13.987Z,59.50
2018-01-24T14:41:42.243Z,59.60
2018-01-24T14:44:10.491Z,59.60
2018-01-24T14:46:38.766Z,58.70
2018-01-24T14:49:07.050Z,59.70
2018-01-24T14:51:35.346Z,59.90
2018-01-24T14:54:03.604Z,60.30
2018-01-24T14:56:31.837Z,60.50
2018-01-24T14:59:00.147Z,60.20
2018-01-24T15:01:28.502Z,60.40
2018-01-24T15:03:56.781Z,60.40
2018-01-24T15:06:25.102Z,59.70
2018-01-24T15:08:53.400Z,59.60
2018-01-24T15:11:21.648Z,59.90
2018-01-24T15:13:50.284Z,60.10
2018-01-24T15:16:18.752Z,60.10
2018-01-24T15:18:47.779Z,61.20
2018-01-24T15:21:16.028Z,61.20
2018-01-24T15:23:44.335Z,60.80
2018-01-24T15:26:12.636Z,61.00
2018-01-24T15:28:40.921Z,61.70
2018-01-24T15:31:09.211Z,61.60
2018-01-24T15:33:37.509Z,61.80
2018-01-24T15:36:06.578Z,61.80
2018-01-24T15:38:34.883Z,61.80
2018-01-24T15:41:03.913Z,61.90
2018-01-24T15:43:32.167Z,61.90
2018-01-24T15:46:00.804Z,62.10
2018-01-24T15:48:29.056Z,62.30
2018-01-24T15:50:57.324Z,62.20
2018-01-24T15:53:25.616Z,62.50
2018-01-24T15:55:53.850Z,62.40
2018-01-24T15:58:22.874Z,62.90
2018-01-24T16:00:51.192Z,62.80
2018-01-24T16:03:19.447Z,62.90
2018-01-24T16:05:48.163Z,63.10
2018-01-24T16:08:16.374Z,63.10
2018-01-24T16:10:44.797Z,63.10
2018-01-24T16:13:13.113Z,63.30
2018-01-24T16:15:41.352Z,63.50
2018-01-24T16:18:09.661Z,63.80
2018-01-24T16:20:37.918Z,63.70
2018-01-24T16:23:06.203Z,63.40
2018-01-24T16:25:34.549Z,63.50
2018-01-24T16:28:02.858Z,63.70
2018-01-24T16:30:31.116Z,63.80
2018-01-24T16:32:59.415Z,63.80
2018-01-24T16:35:27.678Z,63.80
2018-01-24T16:37:56.021Z,63.80
2018-01-24T16:40:24.277Z,64.00
2018-01-24T16:42:52.574Z,64.00
2018-01-24T16:45:20.835Z,64.00
2018-01-24T16:47:49.125Z,64.10
2018-01-24T16:50:17.427Z,64.40
2018-01-24T16:52:45.708Z,64.20
2018-01-24T16:55:14.011Z,64.20
2018-01-24T16:57:43.300Z,64.10
2018-01-24T17:00:11.595Z,64.90
2018-01-24T17:02:39.876Z,64.30
2018-01-24T17:05:08.440Z,64.30
2018-01-24T17:07:36.725Z,64.50
2018-01-24T17:10:05.050Z,64.70
2018-01-24T17:12:33.341Z,65.70
2018-01-24T17:15:01.648Z,64.90
2018-01-24T17:17:29.899Z,64.60
2018-01-24T17:19:58.771Z,65.00
2018-01-24T17:22:27.042Z,64.70
2018-01-24T17:24:55.326Z,64.80
2018-01-24T17:27:23.633Z,64.80
2018-01-24T17:29:51.900Z,64.90
2018-01-24T17:32:20.161Z,64.50
2018-01-24T17:34:48.412Z,64.40
2018-01-24T17:37:17.468Z,64.60
2018-01-24T17:39:45.714Z,64.50
2018-01-24T17:42:13.985Z,65.10
2018-01-24T17:44:42.250Z,65.10
2018-01-24T17:47:12.354Z,64.60
2018-01-24T17:49:41.442Z,65.10
2018-01-24T17:52:09.745Z,65.00
2018-01-24T17:54:38.033Z,64.70
2018-01-24T17:57:06.353Z,64.80
2018-01-24T17:59:34.688Z,65.00
2018-01-24T18:02:02.973Z,65.10
2018-01-24T18:04:31.237Z,65.40
2018-01-24T18:07:00.484Z,66.40
2018-01-24T18:09:30.160Z,66.70
2018-01-24T18:11:58.460Z,66.60
2018-01-24T18:14:26.709Z,66.60
2018-01-24T18:16:54.949Z,66.70
2018-01-24T18:19:23.294Z,66.80
2018-01-24T18:21:51.535Z,67.50
2018-01-24T18:24:19.792Z,67.00
2018-01-24T18:26:48.909Z,67.10
2018-01-24T18:29:17.240Z,67.10
2018-01-24T18:31:45.559Z,66.80
2018-01-24T18:34:13.799Z,66.90
2018-01-24T18:36:42.060Z,67.10
2018-01-24T18:39:10.306Z,67.00
2018-01-24T18:41:38.587Z,66.90
2018-01-24T18:44:06.846Z,67.10
2018-01-24T18:46:35.140Z,67.10
2018-01-24T18:49:03.433Z,67.40
2018-01-24T18:51:31.690Z,67.40
2018-01-24T18:53:59.938Z,66.90
2018-01-24T18:56:28.955Z,67.40
2018-01-24T18:58:57.256Z,67.40
2018-01-24T19:01:25.505Z,67.30
2018-01-24T19:03:53.772Z,67.30
2018-01-24T19:06:22.781Z,67.00
2018-01-24T19:08:51.048Z,67.10
2018-01-24T19:11:19.300Z,67.00
2018-01-24T19:13:47.612Z,67.10
2018-01-24T19:16:15.889Z,67.00
2018-01-24T19:18:44.969Z,66.80
2018-01-24T19:21:14.060Z,67.00
2018-01-24T19:23:43.107Z,66.80
2018-01-24T19:26:12.133Z,66.70
2018-01-24T19:28:40.417Z,66.70
2018-01-24T19:31:09.125Z,66.60
2018-01-24T19:33:37.387Z,66.60
2018-01-24T19:36:06.452Z,66.50
2018-01-24T19:38:34.770Z,66.50
2018-01-24T19:41:03.787Z,66.40
2018-01-24T19:43:32.100Z,66.40
2018-01-24T19:46:00.404Z,66.40
2018-01-24T19:48:28.649Z,66.50
2018-01-24T19:50:56.997Z,66.10
2018-01-24T19:53:25.265Z,66.10
2018-01-24T19:55:53.547Z,65.90
2018-01-24T19:58:21.935Z,66.00
2018-01-24T20:00:50.192Z,65.80
2018-01-24T20:03:18.487Z,65.90
2018-01-24T20:05:46.769Z,65.90
2018-01-24T20:08:15.048Z,65.70
2018-01-24T20:10:43.299Z,65.60
2018-01-24T20:13:11.557Z,65.50
2018-01-24T20:15:40.745Z,65.40
2018-01-24T20:18:09.018Z,65.30
2018-01-24T20:20:37.316Z,65.40
2018-01-24T20:23:06.409Z,65.30
2018-01-24T20:25:35.460Z,65.70
2018-01-24T20:28:03.741Z,65.30
2018-01-24T20:30:32.032Z,65.30
2018-01-24T20:33:01.280Z,65.40
2018-01-24T20:35:30.489Z,65.10
2018-01-24T20:37:59.354Z,65.20
2018-01-24T20:40:28.402Z,65.30
2018-01-24T20:42:56.657Z,65.30
2018-01-24T20:45:24.976Z,65.30
2018-01-24T20:47:53.259Z,65.20
2018-01-24T20:50:21.554Z,65.20
2018-01-24T20:52:49.807Z,65.50
2018-01-24T20:55:18.060Z,66.00
2018-01-24T20:57:47.092Z,65.30
2018-01-24T21:00:15.374Z,65.30
2018-01-24T21:02:43.683Z,65.30
2018-01-24T21:05:12.004Z,65.40
2018-01-24T21:07:40.285Z,65.50
2018-01-24T21:10:09.369Z,65.60
2018-01-24T21:12:37.613Z,65.50
2018-01-24T21:15:05.870Z,65.40
2018-01-24T21:17:34.877Z,65.30
2018-01-24T21:20:04.088Z,65.30
2018-01-24T21:22:32.388Z,65.30
2018-01-24T21:25:00.681Z,65.20
2018-01-24T21:27:29.002Z,66.10
2018-01-24T21:30:09.876Z,65.40
2018-01-24T21:32:50.011Z,65.40
2018-01-24T21:35:30.993Z,65.60
2018-01-24T21:38:00.031Z,65.50
2018-01-24T21:40:28.292Z,65.60
2018-01-24T21:42:56.533Z,65.50
2018-01-24T21:45:26.337Z,65.50
2018-01-24T21:47:54.577Z,65.50
2018-01-24T21:50:22.881Z,65.60
2018-01-24T21:52:51.153Z,65.50
2018-01-24T21:55:19.711Z,65.40
2018-01-24T21:57:47.954Z,65.30
2018-01-24T22:00:16.287Z,65.30
2018-01-24T22:02:44.581Z,65.20
2018-01-24T22:05:12.870Z,65.10
2018-01-24T22:07:41.200Z,65.20
2018-01-24T22:10:09.482Z,65.20
2018-01-24T22:12:37.783Z,65.10
2018-01-24T22:15:06.029Z,65.30
2018-01-24T22:17:34.327Z,65.30
2018-01-24T22:20:02.623Z,65.20
2018-01-24T22:22:30.861Z,65.10
2018-01-24T22:24:59.171Z,65.30
2018-01-24T22:27:27.460Z,65.20
2018-01-24T22:29:56.091Z,65.30
2018-01-24T22:32:24.346Z,65.10
2018-01-24T22:34:53.392Z,65.00
2018-01-24T22:37:21.656Z,65.00
2018-01-24T22:39:49.917Z,65.00
2018-01-24T22:42:18.242Z,65.00
2018-01-24T22:44:46.545Z,65.30
2018-01-24T22:47:15.591Z,65.00
2018-01-24T22:49:43.902Z,65.30
2018-01-24T22:52:12.176Z,64.90
2018-01-24T22:54:40.445Z,65.00
2018-01-24T22:57:08.697Z,65.60
2018-01-24T22:59:37.092Z,64.90
2018-01-24T23:02:05.318Z,65.00
2018-01-24T23:04:33.602Z,65.00
2018-01-24T23:07:02.829Z,64.90
2018-01-24T23:09:31.104Z,64.80
2018-01-24T23:11:59.372Z,64.70
2018-01-24T23:14:27.616Z,64.80
2018-01-24T23:16:55.892Z,64.80
2018-01-24T23:19:24.136Z,64.90
2018-01-24T23:21:52.383Z,64.90
2018-01-24T23:24:20.683Z,64.90
2018-01-24T23:26:48.965Z,64.70
2018-01-24T23:29:17.291Z,64.70
2018-01-24T23:31:46.285Z,64.50
2018-01-24T23:34:14.632Z,64.50
2018-01-24T23:36:43.687Z,64.80
2018-01-24T23:39:11.996Z,64.70
2018-01-24T23:41:40.226Z,64.70
2018-01-24T23:44:08.511Z,64.60
2018-01-24T23:46:36.826Z,64.50
2018-01-24T23:49:05.101Z,64.40
2018-01-24T23:51:33.386Z,64.50
2018-01-24T23:54:01.632Z,64.60
2018-01-24T23:56:29.937Z,64.50
2018-01-24T23:58:58.204Z,64.70
